Penobscot, ME (04476)

5:46 PM EDT on April 27, 2017 (GMT -0400)
RainWise MKIII by Pierces Pond | | Change Station

Elev 89 ft 44.48 °N, 68.72 °W | Updated 3 seconds ago

Overcast
Overcast
56.6 °F
Feels Like 56.6 °F
N
0.0
Wind Variable Wind from NNE
Gusts 0.0 mph

Today
High -- | Low -- °F
--% Chance of Precip.
Yesterday
High -- | Low -- °F
Precip. -- in
Pressure 29.97 in
Visibility 10.0 miles
Clouds Overcast 300 ft
Dew Point Not available.
Humidity Not available.
Rainfall 0.05 in
Snow Depth Not available.
5:31 AM 7:34 PM
Waxing Crescent, 3% visible
METAR KBHB 272056Z AUTO 07004KT 10SM OVC003 11/11 A2996 RMK AO2 CIG 002V006 SLP149 T01110106 56000
Pressure 29.97 in
Visibility 10.0 miles
Clouds Overcast 300 ft
Dew Point Not available.
Humidity Not available.
Rainfall 0.05 in
Snow Depth Not available.
5:31 AM 7:34 PM
Waxing Crescent, 3% visible
METAR KBHB 272056Z AUTO 07004KT 10SM OVC003 11/11 A2996 RMK AO2 CIG 002V006 SLP149 T01110106 56000

Get Severe Weather Alerts

Thanks for signing up!

Be on the lookout for a verification email in your inbox.

You'll start receiving the daily forecast at 8 AM.

×

10-Day Weather Forecast

Almanac

Astronomy

Apr. 27, 2017 Rise Set
Actual Time
Civil Twilight
Nautical Twilight
Astronomical Twilight
Moon
Length of Visible Light
Length of Day
Tomorrow will be .
, % of the Moon is Illuminated

Today's Extremes

State Highs State Lows

Community

WunderPhotos

WunderBlog® & News

Nearby

Air Quality

  Air Quality AQ Index Pollutant
Not available.

Snow Depth

Station Depth Elevation

Earthquake Activity

City Distance Mag. Time & Date
Minimum magnitude displayed is 2.5.

Coastal Water Temperatures

Place Temperature

Stations

Nearby Weather Stations

Station Location Temp. Windchill Dew Point Humidity Wind Precip. Elev Updated Type
                   

Watches & Warnings

There are currently no watches in effect.